TimeCDT,TemperatureF,Dew PointF,Humidity,Sea Level PressureIn,VisibilityMPH,Wind Direction,Wind SpeedMPH,Gust SpeedMPH,PrecipitationIn,Events,Conditions,WindDirDegrees,DateUTC
12:53 AM,53.1,51.1,93,30.02,10.0,ENE,5.8,-,N/A,,Overcast,70,2013-06-06 05:53:00
1:53 AM,53.1,48.9,86,30.01,9.0,ENE,4.6,-,0.02,Rain,Light Rain,60,2013-06-06 06:53:00
2:53 AM,53.1,48.9,86,30.01,9.0,NE,3.5,-,0.03,Rain,Light Rain,50,2013-06-06 07:53:00
3:53 AM,51.1,48.9,92,30.00,3.0,ENE,5.8,-,0.14,Rain,Rain,70,2013-06-06 08:53:00
4:53 AM,51.1,48.9,92,29.99,6.0,NE,5.8,-,0.09,Rain,Light Rain,40,2013-06-06 09:53:00
5:27 AM,51.1,48.9,92,29.98,7.0,NE,8.1,-,0.00,,Overcast,40,2013-06-06 10:27:00
5:53 AM,52.0,48.9,89,30.00,9.0,NNE,6.9,-,0.00,,Overcast,20,2013-06-06 10:53:00
6:30 AM,52.0,48.9,89,30.00,10.0,ENE,3.5,-,0.00,,Overcast,60,2013-06-06 11:30:00
6:53 AM,52.0,48.9,89,30.01,10.0,NNE,3.5,-,0.00,,Overcast,20,2013-06-06 11:53:00
7:12 AM,52.0,48.9,89,30.00,9.0,NE,4.6,-,N/A,,Overcast,40,2013-06-06 12:12:00
7:53 AM,52.0,50.0,93,30.01,4.0,NE,6.9,-,0.01,Rain,Light Rain,40,2013-06-06 12:53:00
8:53 AM,52.0,48.9,89,30.01,9.0,NE,8.1,-,0.01,Rain,Light Rain,40,2013-06-06 13:53:00
9:53 AM,52.0,48.9,89,30.02,7.0,ENE,6.9,-,0.00,Rain,Light Rain,60,2013-06-06 14:53:00
10:44 AM,52.0,48.9,89,30.01,6.0,East,4.6,-,0.01,Rain,Light Rain,90,2013-06-06 15:44:00
10:53 AM,52.0,48.9,89,30.02,9.0,East,4.6,-,0.01,,Overcast,80,2013-06-06 15:53:00
11:53 AM,54.0,48.9,83,30.01,10.0,NE,8.1,-,N/A,,Overcast,50,2013-06-06 16:53:00
12:53 PM,55.0,48.9,80,30.01,10.0,NNE,9.2,-,N/A,,Overcast,30,2013-06-06 17:53:00
1:53 PM,55.9,48.9,77,30.01,10.0,NE,11.5,-,N/A,,Overcast,40,2013-06-06 18:53:00
2:53 PM,55.0,46.9,74,30.01,10.0,NNE,11.5,-,N/A,,Overcast,30,2013-06-06 19:53:00
3:53 PM,55.9,46.9,72,30.01,10.0,NNE,8.1,-,N/A,,Overcast,30,2013-06-06 20:53:00
4:53 PM,55.9,46.9,72,30.01,10.0,NNE,8.1,-,N/A,,Overcast,20,2013-06-06 21:53:00
5:53 PM,57.0,46.9,69,30.00,10.0,NNE,8.1,-,N/A,,Overcast,30,2013-06-06 22:53:00
6:53 PM,55.9,46.0,69,29.99,10.0,NNE,12.7,-,N/A,,Overcast,30,2013-06-06 23:53:00
7:53 PM,55.0,46.0,72,29.99,10.0,North,4.6,-,0.00,,Mostly Cloudy,360,2013-06-07 00:53:00
8:53 PM,54.0,45.0,72,29.99,10.0,North,8.1,-,N/A,,Overcast,10,2013-06-07 01:53:00
9:53 PM,55.0,43.0,64,29.99,10.0,NE,5.8,-,N/A,,Overcast,50,2013-06-07 02:53:00
10:53 PM,53.1,46.0,77,29.99,10.0,North,6.9,-,N/A,,Overcast,350,2013-06-07 03:53:00
11:53 PM,53.1,44.1,71,29.99,10.0,North,6.9,-,N/A,,Overcast,360,2013-06-07 04:53:00